createdAt,value
2017-11-16T00:00:29.427Z,4.23
2017-11-16T00:03:52.902Z,4.33
2017-11-16T00:07:16.489Z,3.87
2017-11-16T00:10:39.960Z,3.13
2017-11-16T00:14:03.424Z,3.27
2017-11-16T00:17:26.954Z,3.63
2017-11-16T00:20:50.628Z,3.73
2017-11-16T00:24:14.932Z,2.93
2017-11-16T00:27:39.182Z,3.60
2017-11-16T00:31:02.672Z,2.57
2017-11-16T00:34:26.184Z,3.60
2017-11-16T00:37:49.721Z,2.67
2017-11-16T00:41:13.236Z,5.03
2017-11-16T00:44:36.747Z,3.00
2017-11-16T00:48:01.784Z,2.40
2017-11-16T00:51:26.307Z,3.30
2017-11-16T00:54:49.863Z,2.93
2017-11-16T00:58:13.736Z,2.70
2017-11-16T01:01:37.444Z,3.40
2017-11-16T01:05:00.952Z,2.30
2017-11-16T01:08:25.220Z,2.80
2017-11-16T01:11:48.705Z,2.20
2017-11-16T01:15:12.165Z,2.37
2017-11-16T01:18:35.748Z,2.30
2017-11-16T01:21:59.234Z,2.67
2017-11-16T01:25:22.731Z,2.50
2017-11-16T01:28:46.252Z,2.70
2017-11-16T01:32:09.740Z,2.27
2017-11-16T01:35:33.232Z,2.47
2017-11-16T01:38:57.707Z,3.47
2017-11-16T01:42:21.236Z,2.10
2017-11-16T01:45:45.480Z,2.97
2017-11-16T01:49:08.955Z,2.37
2017-11-16T01:52:33.229Z,1.90
2017-11-16T01:55:57.536Z,2.20
2017-11-16T01:59:21.101Z,2.17
2017-11-16T02:02:45.551Z,3.13
2017-11-16T02:06:09.006Z,2.40
2017-11-16T02:09:33.311Z,2.23
2017-11-16T02:12:57.645Z,2.23
2017-11-16T02:16:21.089Z,3.33
2017-11-16T02:19:45.420Z,2.70
2017-11-16T02:23:08.921Z,1.80
2017-11-16T02:26:33.184Z,1.90
2017-11-16T02:29:56.670Z,2.00
2017-11-16T02:33:20.152Z,2.10
2017-11-16T02:36:44.487Z,2.10
2017-11-16T02:40:07.959Z,2.00
2017-11-16T02:43:31.637Z,2.50
2017-11-16T02:46:55.100Z,2.73
2017-11-16T02:50:18.784Z,2.30
2017-11-16T02:53:42.246Z,1.93
2017-11-16T02:57:05.824Z,2.43
2017-11-16T03:00:29.466Z,2.70
2017-11-16T03:03:52.968Z,1.93
2017-11-16T03:07:16.472Z,2.83
2017-11-16T03:10:40.016Z,1.90
2017-11-16T03:14:03.499Z,2.13
2017-11-16T03:17:26.999Z,1.70
2017-11-16T03:20:50.499Z,1.73
2017-11-16T03:24:14.823Z,1.70
2017-11-16T03:27:38.320Z,2.00
2017-11-16T03:31:01.873Z,2.00
2017-11-16T03:34:25.373Z,1.83
2017-11-16T03:37:49.648Z,1.80
2017-11-16T03:41:13.096Z,2.00
2017-11-16T03:44:37.784Z,2.17
2017-11-16T03:48:02.518Z,2.00
2017-11-16T03:51:25.997Z,1.70
2017-11-16T03:54:49.490Z,2.03
2017-11-16T03:58:13.048Z,2.00
2017-11-16T04:01:36.551Z,1.83
2017-11-16T04:05:00.032Z,1.80
2017-11-16T04:08:24.386Z,2.43
2017-11-16T04:11:47.855Z,3.73
2017-11-16T04:15:12.296Z,3.10
2017-11-16T04:18:35.799Z,1.80
2017-11-16T04:21:59.261Z,1.93
2017-11-16T04:25:22.749Z,2.43
2017-11-16T04:28:46.208Z,2.27
2017-11-16T04:32:09.696Z,2.00
2017-11-16T04:35:34.100Z,2.77
2017-11-16T04:38:58.379Z,3.43
2017-11-16T04:42:21.853Z,2.40
2017-11-16T04:45:45.323Z,2.70
2017-11-16T04:49:08.807Z,2.80
2017-11-16T04:52:32.316Z,2.60
2017-11-16T04:55:55.912Z,2.73
2017-11-16T04:59:19.368Z,4.20
2017-11-16T05:02:43.904Z,2.70
2017-11-16T05:06:07.364Z,3.30
2017-11-16T05:09:30.923Z,2.80
2017-11-16T05:12:54.399Z,2.23
2017-11-16T05:16:17.900Z,2.00
2017-11-16T05:19:41.367Z,2.40
2017-11-16T05:23:04.830Z,2.53
2017-11-16T05:26:28.313Z,2.83
2017-11-16T05:29:51.784Z,3.40
2017-11-16T05:33:15.252Z,2.30
2017-11-16T05:36:38.712Z,2.13
2017-11-16T05:40:02.188Z,2.13
2017-11-16T05:43:25.704Z,2.53
2017-11-16T05:46:49.173Z,2.93
2017-11-16T05:50:12.655Z,2.73
2017-11-16T05:53:37.668Z,2.60
2017-11-16T05:57:01.262Z,2.50
2017-11-16T06:00:24.780Z,2.47
2017-11-16T06:03:48.313Z,2.00
2017-11-16T06:07:12.564Z,2.00
2017-11-16T06:10:36.308Z,2.13
2017-11-16T06:13:59.786Z,2.40
2017-11-16T06:17:23.265Z,2.10
2017-11-16T06:20:47.588Z,2.10
2017-11-16T06:24:11.287Z,2.67
2017-11-16T06:27:35.603Z,2.13
2017-11-16T06:30:59.068Z,2.03
2017-11-16T06:34:22.586Z,2.17
2017-11-16T06:37:46.967Z,2.00
2017-11-16T06:41:10.407Z,2.27
2017-11-16T06:44:33.851Z,1.90
2017-11-16T06:47:58.176Z,2.40
2017-11-16T06:51:21.626Z,2.20
2017-11-16T06:54:45.873Z,2.73
2017-11-16T06:58:09.383Z,2.60
2017-11-16T07:01:33.636Z,2.43
2017-11-16T07:04:57.155Z,2.57
2017-11-16T07:08:21.402Z,3.23
2017-11-16T07:11:44.937Z,2.70
2017-11-16T07:15:08.449Z,3.03
2017-11-16T07:18:33.547Z,3.43
2017-11-16T07:21:57.053Z,2.93
2017-11-16T07:25:22.063Z,3.57
2017-11-16T07:28:46.450Z,6.30
2017-11-16T07:32:10.832Z,2.90
2017-11-16T07:35:34.315Z,3.40
2017-11-16T07:38:59.304Z,4.47
2017-11-16T07:42:22.764Z,5.77
2017-11-16T07:45:46.240Z,4.63
2017-11-16T07:49:09.787Z,7.43
2017-11-16T07:52:33.233Z,5.17
2017-11-16T07:55:56.772Z,4.47
2017-11-16T07:59:21.006Z,5.13
2017-11-16T08:02:44.531Z,5.33
2017-11-16T08:06:09.507Z,3.23
2017-11-16T08:09:33.835Z,3.03
2017-11-16T08:12:58.803Z,3.30
2017-11-16T08:16:22.341Z,6.50
2017-11-16T08:19:45.888Z,3.43
2017-11-16T08:23:09.448Z,5.00
2017-11-16T08:26:32.947Z,4.37
2017-11-16T08:29:57.172Z,3.33
2017-11-16T08:33:20.663Z,3.37
2017-11-16T08:36:44.139Z,3.63
2017-11-16T08:40:07.621Z,5.20
2017-11-16T08:43:31.092Z,4.47
2017-11-16T08:46:54.605Z,3.80
2017-11-16T08:50:18.881Z,2.83
2017-11-16T08:53:42.341Z,4.27
2017-11-16T08:57:05.800Z,4.20
2017-11-16T09:00:29.289Z,4.10
2017-11-16T09:03:52.862Z,3.90
2017-11-16T09:07:16.332Z,4.20
2017-11-16T09:10:39.804Z,3.93
2017-11-16T09:14:03.253Z,3.77
2017-11-16T09:17:27.533Z,3.00
2017-11-16T09:20:51.010Z,2.60
2017-11-16T09:24:14.466Z,3.00
2017-11-16T09:27:37.984Z,3.73
2017-11-16T09:31:01.443Z,3.30
2017-11-16T09:34:25.727Z,4.40
2017-11-16T09:37:49.205Z,3.20
2017-11-16T09:41:12.652Z,4.47
2017-11-16T09:44:36.133Z,3.07
2017-11-16T09:47:59.585Z,3.10
2017-11-16T09:51:23.304Z,4.20
2017-11-16T09:54:46.809Z,3.80
2017-11-16T09:58:11.104Z,3.77
2017-11-16T10:01:35.453Z,3.47
2017-11-16T10:04:58.911Z,4.77
2017-11-16T10:08:22.486Z,3.43
2017-11-16T10:11:45.961Z,3.23
2017-11-16T10:15:09.460Z,3.23
2017-11-16T10:18:33.089Z,3.10
2017-11-16T10:21:56.586Z,4.30
2017-11-16T10:25:20.052Z,3.40
2017-11-16T10:28:43.641Z,3.40
2017-11-16T10:32:07.084Z,3.80
2017-11-16T10:35:30.591Z,3.10
2017-11-16T10:38:54.217Z,3.93
2017-11-16T10:42:17.679Z,3.40
2017-11-16T10:45:41.240Z,3.70
2017-11-16T10:49:04.911Z,4.57
2017-11-16T10:52:29.172Z,4.07
2017-11-16T10:55:53.542Z,2.90
2017-11-16T10:59:17.314Z,4.33
2017-11-16T11:02:40.965Z,3.77
2017-11-16T11:06:04.474Z,4.00
2017-11-16T11:09:27.963Z,3.77
2017-11-16T11:12:51.754Z,3.40
2017-11-16T11:16:16.015Z,3.10
2017-11-16T11:19:39.531Z,3.20
2017-11-16T11:23:03.068Z,3.70
2017-11-16T11:26:26.584Z,3.50
2017-11-16T11:29:50.828Z,3.43
2017-11-16T11:33:14.487Z,3.40
2017-11-16T11:36:38.039Z,3.20
2017-11-16T11:40:02.271Z,3.40
2017-11-16T11:43:25.744Z,3.67
2017-11-16T11:46:49.268Z,2.97
2017-11-16T11:50:12.753Z,3.87
2017-11-16T11:53:37.021Z,3.60
2017-11-16T11:57:01.627Z,4.03
2017-11-16T12:00:25.310Z,3.60
2017-11-16T12:03:49.536Z,2.83
2017-11-16T12:07:13.050Z,3.60
2017-11-16T12:10:37.291Z,3.60
2017-11-16T12:14:00.819Z,3.83
2017-11-16T12:17:25.032Z,3.70
2017-11-16T12:20:48.625Z,3.50
2017-11-16T12:24:12.128Z,3.50
2017-11-16T12:27:35.617Z,3.33
2017-11-16T12:31:18.693Z,3.70
2017-11-16T12:34:42.224Z,3.23
2017-11-16T12:38:05.725Z,3.53
2017-11-16T12:41:29.203Z,3.20
2017-11-16T12:44:52.671Z,4.40
2017-11-16T12:48:16.166Z,2.80
2017-11-16T12:51:39.654Z,2.80
2017-11-16T12:55:03.132Z,3.67
2017-11-16T12:58:26.673Z,3.50
2017-11-16T13:01:50.152Z,3.30
2017-11-16T13:05:13.755Z,3.87
2017-11-16T13:08:37.547Z,2.50
2017-11-16T13:12:01.797Z,3.67
2017-11-16T13:15:25.370Z,2.93
2017-11-16T13:18:48.960Z,3.10
2017-11-16T13:22:12.460Z,3.70
2017-11-16T13:25:36.774Z,3.77
2017-11-16T13:29:01.032Z,3.20
2017-11-16T13:32:24.494Z,3.10
2017-11-16T13:35:47.997Z,2.63
2017-11-16T13:39:11.474Z,4.30
2017-11-16T13:42:35.920Z,3.30
2017-11-16T13:45:59.454Z,3.63
2017-11-16T13:49:23.776Z,3.50
2017-11-16T13:56:43.384Z,3.10
2017-11-16T14:03:59.446Z,3.80
2017-11-16T14:07:25.026Z,3.70
2017-11-16T14:14:42.174Z,3.40
2017-11-16T14:18:05.655Z,4.40
2017-11-16T14:21:30.788Z,4.50
2017-11-16T14:24:54.265Z,3.77
2017-11-16T14:28:17.741Z,3.73
2017-11-16T14:31:41.208Z,4.43
2017-11-16T14:35:04.720Z,3.30
2017-11-16T14:38:28.924Z,3.73
2017-11-16T15:16:53.797Z,3.87
2017-11-16T15:20:17.280Z,4.10
2017-11-16T15:27:33.119Z,4.13
2017-11-16T15:30:56.613Z,3.23
2017-11-16T15:34:20.864Z,3.73
2017-11-16T15:41:37.204Z,3.97
2017-11-16T15:45:01.519Z,3.77
2017-11-16T15:48:25.805Z,3.40
2017-11-16T15:51:50.209Z,3.53
2017-11-16T15:55:14.488Z,4.10
2017-11-16T15:58:37.967Z,3.30
2017-11-16T16:02:01.569Z,3.73
2017-11-16T16:05:25.807Z,4.03
2017-11-16T16:08:49.313Z,3.80
2017-11-16T16:12:12.847Z,3.37
2017-11-16T16:15:36.387Z,3.43
2017-11-16T16:18:59.889Z,4.93
2017-11-16T16:22:25.650Z,3.87
2017-11-16T16:25:50.005Z,5.33
2017-11-16T16:29:13.500Z,3.50
2017-11-16T16:32:37.792Z,3.50
2017-11-16T16:36:01.264Z,3.97
2017-11-16T16:39:24.786Z,3.72
2017-11-16T16:42:48.513Z,3.80
2017-11-16T16:46:11.989Z,3.90
2017-11-16T16:49:35.497Z,3.90
2017-11-16T16:52:58.995Z,3.13
2017-11-16T16:56:22.486Z,4.30
2017-11-16T16:59:46.031Z,3.27
2017-11-16T17:03:09.592Z,5.73
2017-11-16T17:06:33.157Z,3.93
2017-11-16T17:09:57.539Z,4.07
2017-11-16T17:13:21.051Z,4.00
2017-11-16T17:16:44.540Z,3.53
2017-11-16T17:20:08.037Z,3.63
2017-11-16T17:23:31.631Z,4.47
2017-11-16T17:26:56.099Z,4.20
2017-11-16T17:30:19.594Z,4.03
2017-11-16T17:33:43.142Z,5.73
2017-11-16T17:37:06.625Z,3.97
2017-11-16T17:40:30.301Z,3.80
2017-11-16T17:43:53.797Z,5.43
2017-11-16T17:51:11.339Z,8.27
2017-11-16T17:54:36.494Z,13.50
2017-11-16T17:57:59.983Z,15.97
2017-11-16T18:01:23.497Z,17.40
2017-11-16T18:04:47.024Z,15.63
2017-11-16T18:12:04.244Z,20.00
2017-11-16T18:15:28.556Z,15.90
2017-11-16T18:18:52.759Z,15.80
2017-11-16T18:22:16.450Z,14.83
2017-11-16T18:25:39.945Z,12.73
2017-11-16T18:29:03.620Z,10.73
2017-11-16T18:32:27.139Z,19.10
2017-11-16T18:35:50.599Z,14.73
2017-11-16T18:39:14.180Z,11.63
2017-11-16T18:42:38.564Z,17.33
2017-11-16T18:46:02.768Z,12.90
2017-11-16T18:49:26.313Z,16.00
2017-11-16T18:52:50.595Z,12.93
2017-11-16T18:56:16.366Z,16.83
2017-11-16T18:59:39.997Z,15.63
2017-11-16T19:03:04.279Z,17.07
2017-11-16T19:06:28.775Z,13.63
2017-11-16T19:09:52.644Z,12.40
2017-11-16T19:13:16.698Z,9.20
2017-11-16T19:16:40.955Z,12.90
2017-11-16T19:20:05.310Z,14.00
2017-11-16T19:23:28.853Z,17.50
2017-11-16T19:26:52.389Z,11.13
2017-11-16T19:30:16.695Z,11.33
2017-11-16T19:33:40.949Z,11.27
2017-11-16T19:37:04.486Z,10.10
2017-11-16T19:40:28.032Z,10.73
2017-11-16T19:43:51.671Z,8.70
2017-11-16T19:47:15.203Z,9.60
2017-11-16T19:50:38.848Z,8.90
2017-11-16T19:54:02.517Z,13.03
2017-11-16T19:57:26.256Z,11.10
2017-11-16T20:00:49.769Z,7.90
2017-11-16T20:04:14.064Z,11.50
2017-11-16T20:07:37.621Z,10.77
2017-11-16T20:11:01.958Z,8.77
2017-11-16T20:14:25.535Z,8.33
2017-11-16T20:17:49.055Z,7.90
2017-11-16T20:21:14.168Z,8.80
2017-11-16T20:24:37.737Z,7.37
2017-11-16T20:28:01.231Z,6.73
2017-11-16T20:31:25.689Z,8.70
2017-11-16T20:34:49.179Z,8.27
2017-11-16T20:38:12.796Z,7.37
2017-11-16T20:41:41.941Z,5.20
2017-11-16T20:53:03.411Z,6.97
2017-11-16T20:56:26.927Z,5.50
2017-11-16T20:59:51.227Z,8.43
2017-11-16T21:03:14.896Z,8.17
2017-11-16T21:06:39.173Z,9.07
2017-11-16T21:10:02.651Z,6.70
2017-11-16T21:13:26.984Z,6.10
2017-11-16T21:16:50.535Z,8.63
2017-11-16T21:24:06.946Z,7.03
2017-11-16T21:27:30.485Z,10.47
2017-11-16T21:30:53.967Z,8.50
2017-11-16T21:34:17.447Z,6.83
2017-11-16T21:37:41.130Z,6.57
2017-11-16T21:41:04.685Z,5.87
2017-11-16T21:44:28.165Z,9.40
2017-11-16T21:47:51.856Z,7.90
2017-11-16T21:51:15.341Z,8.67
2017-11-16T21:54:38.822Z,7.10
2017-11-16T21:58:03.077Z,7.20
2017-11-16T22:01:26.561Z,6.37
2017-11-16T22:04:50.115Z,9.77
2017-11-16T22:08:13.563Z,9.17
2017-11-16T22:11:37.120Z,6.53
2017-11-16T22:15:01.362Z,7.73
2017-11-16T22:18:24.871Z,7.30
2017-11-16T22:21:48.339Z,8.03
2017-11-16T22:25:12.561Z,11.33
2017-11-16T22:28:36.117Z,7.70
2017-11-16T22:32:00.357Z,8.93
2017-11-16T22:35:23.843Z,9.47
2017-11-16T22:38:48.137Z,7.00
2017-11-16T22:42:11.683Z,8.37
2017-11-16T22:45:35.158Z,9.47
2017-11-16T22:48:58.641Z,8.70
2017-11-16T22:52:22.117Z,8.90
2017-11-16T22:55:45.811Z,11.23
2017-11-16T22:59:10.076Z,8.83
2017-11-16T23:02:34.423Z,8.47
2017-11-16T23:05:57.903Z,9.27
2017-11-16T23:09:21.479Z,8.90
2017-11-16T23:12:45.816Z,8.63
2017-11-16T23:16:09.411Z,8.67
2017-11-16T23:19:32.883Z,11.27
2017-11-16T23:22:57.151Z,11.37
2017-11-16T23:26:20.654Z,9.70
2017-11-16T23:29:44.156Z,10.27
2017-11-16T23:33:07.653Z,13.13
2017-11-16T23:36:33.245Z,9.93
2017-11-16T23:39:58.464Z,9.93
2017-11-16T23:43:23.174Z,9.80
2017-11-16T23:46:48.059Z,9.93
2017-11-16T23:50:16.133Z,9.80
2017-11-16T23:53:41.184Z,9.00
2017-11-16T23:57:05.385Z,11.57
